sensor_id;sensor_type;location;lat;lon;timestamp;temperature;humidity
13521;DHT22;6832;51.186;3.236;2022-12-07T00:02:14;9.70;83.30
13521;DHT22;6832;51.186;3.236;2022-12-07T00:11:48;9.70;83.20
13521;DHT22;6832;51.186;3.236;2022-12-07T00:17:37;9.60;82.80
13521;DHT22;6832;51.186;3.236;2022-12-07T00:20:35;9.50;82.60
13521;DHT22;6832;51.186;3.236;2022-12-07T00:23:49;9.50;82.50
13521;DHT22;6832;51.186;3.236;2022-12-07T00:33:09;9.40;82.20
13521;DHT22;6832;51.186;3.236;2022-12-07T00:36:17;9.40;82.30
13521;DHT22;6832;51.186;3.236;2022-12-07T00:39:00;9.30;81.90
13521;DHT22;6832;51.186;3.236;2022-12-07T00:41:33;9.30;81.70
13521;DHT22;6832;51.186;3.236;2022-12-07T00:44:19;9.20;81.60
13521;DHT22;6832;51.186;3.236;2022-12-07T00:46:53;9.20;82.10
13521;DHT22;6832;51.186;3.236;2022-12-07T00:49:41;9.10;82.40
13521;DHT22;6832;51.186;3.236;2022-12-07T00:52:31;9.10;82.90
13521;DHT22;6832;51.186;3.236;2022-12-07T00:55:16;9.10;83.60
13521;DHT22;6832;51.186;3.236;2022-12-07T00:58:09;9.10;84.20
13521;DHT22;6832;51.186;3.236;2022-12-07T01:00:52;9.00;84.20
13521;DHT22;6832;51.186;3.236;2022-12-07T01:03:40;9.00;84.60
13521;DHT22;6832;51.186;3.236;2022-12-07T01:06:31;9.00;85.20
13521;DHT22;6832;51.186;3.236;2022-12-07T01:09:19;9.00;85.40
13521;DHT22;6832;51.186;3.236;2022-12-07T01:12:06;9.00;85.20
13521;DHT22;6832;51.186;3.236;2022-12-07T01:15:09;9.00;85.00
13521;DHT22;6832;51.186;3.236;2022-12-07T01:18:00;9.00;85.20
13521;DHT22;6832;51.186;3.236;2022-12-07T01:20:40;9.00;84.80
13521;DHT22;6832;51.186;3.236;2022-12-07T01:23:21;9.00;85.20
13521;DHT22;6832;51.186;3.236;2022-12-07T01:26:16;9.00;85.60
13521;DHT22;6832;51.186;3.236;2022-12-07T01:29:09;9.00;85.50
13521;DHT22;6832;51.186;3.236;2022-12-07T01:32:05;9.00;85.90
13521;DHT22;6832;51.186;3.236;2022-12-07T01:34:50;8.90;86.20
13521;DHT22;6832;51.186;3.236;2022-12-07T01:38:02;8.90;86.00
13521;DHT22;6832;51.186;3.236;2022-12-07T01:47:38;9.00;86.50
13521;DHT22;6832;51.186;3.236;2022-12-07T01:50:11;8.90;86.40
13521;DHT22;6832;51.186;3.236;2022-12-07T01:52:58;8.90;86.20
13521;DHT22;6832;51.186;3.236;2022-12-07T01:55:38;8.90;86.00
13521;DHT22;6832;51.186;3.236;2022-12-07T01:58:22;8.90;85.70
13521;DHT22;6832;51.186;3.236;2022-12-07T02:01:12;8.90;85.60
13521;DHT22;6832;51.186;3.236;2022-12-07T02:04:08;8.90;85.70
13521;DHT22;6832;51.186;3.236;2022-12-07T02:06:56;8.90;86.00
13521;DHT22;6832;51.186;3.236;2022-12-07T02:09:41;8.90;86.10
13521;DHT22;6832;51.186;3.236;2022-12-07T02:12:21;8.80;85.70
13521;DHT22;6832;51.186;3.236;2022-12-07T02:15:25;8.80;85.60
13521;DHT22;6832;51.186;3.236;2022-12-07T02:18:08;8.80;86.00
13521;DHT22;6832;51.186;3.236;2022-12-07T02:21:01;8.80;86.00
13521;DHT22;6832;51.186;3.236;2022-12-07T02:24:03;8.70;86.50
13521;DHT22;6832;51.186;3.236;2022-12-07T02:27:23;8.70;86.60
13521;DHT22;6832;51.186;3.236;2022-12-07T02:30:16;8.70;86.70
13521;DHT22;6832;51.186;3.236;2022-12-07T02:33:16;8.70;86.70
13521;DHT22;6832;51.186;3.236;2022-12-07T02:36:15;8.70;86.90
13521;DHT22;6832;51.186;3.236;2022-12-07T02:39:14;8.70;86.70
13521;DHT22;6832;51.186;3.236;2022-12-07T02:42:06;8.70;86.80
13521;DHT22;6832;51.186;3.236;2022-12-07T02:47:51;8.70;87.10
13521;DHT22;6832;51.186;3.236;2022-12-07T02:50:27;8.60;87.00
13521;DHT22;6832;51.186;3.236;2022-12-07T02:53:32;8.60;86.60
13521;DHT22;6832;51.186;3.236;2022-12-07T02:56:12;8.70;87.40
13521;DHT22;6832;51.186;3.236;2022-12-07T02:59:11;8.70;87.20
13521;DHT22;6832;51.186;3.236;2022-12-07T03:05:20;8.60;88.00
13521;DHT22;6832;51.186;3.236;2022-12-07T03:08:25;8.60;88.30
13521;DHT22;6832;51.186;3.236;2022-12-07T03:11:41;8.60;88.60
13521;DHT22;6832;51.186;3.236;2022-12-07T03:14:25;8.60;88.80
13521;DHT22;6832;51.186;3.236;2022-12-07T03:17:34;8.50;89.00
13521;DHT22;6832;51.186;3.236;2022-12-07T03:20:33;8.60;89.80
13521;DHT22;6832;51.186;3.236;2022-12-07T03:23:11;8.60;89.80
13521;DHT22;6832;51.186;3.236;2022-12-07T03:25:49;8.60;89.60
13521;DHT22;6832;51.186;3.236;2022-12-07T03:28:54;8.60;89.30
13521;DHT22;6832;51.186;3.236;2022-12-07T03:31:41;8.60;89.90
13521;DHT22;6832;51.186;3.236;2022-12-07T03:34:36;8.60;89.20
13521;DHT22;6832;51.186;3.236;2022-12-07T03:37:28;8.60;89.60
13521;DHT22;6832;51.186;3.236;2022-12-07T03:40:11;8.70;89.30
13521;DHT22;6832;51.186;3.236;2022-12-07T03:42:53;8.60;88.90
13521;DHT22;6832;51.186;3.236;2022-12-07T03:45:34;8.60;89.00
13521;DHT22;6832;51.186;3.236;2022-12-07T03:48:11;8.70;89.10
13521;DHT22;6832;51.186;3.236;2022-12-07T03:50:48;8.70;88.70
13521;DHT22;6832;51.186;3.236;2022-12-07T03:53:22;8.70;88.70
13521;DHT22;6832;51.186;3.236;2022-12-07T03:55:54;8.60;89.20
13521;DHT22;6832;51.186;3.236;2022-12-07T03:58:40;8.60;89.70
13521;DHT22;6832;51.186;3.236;2022-12-07T04:01:11;8.60;90.40
13521;DHT22;6832;51.186;3.236;2022-12-07T04:03:45;8.70;90.40
13521;DHT22;6832;51.186;3.236;2022-12-07T04:06:22;8.70;90.40
13521;DHT22;6832;51.186;3.236;2022-12-07T04:08:55;8.70;90.70
13521;DHT22;6832;51.186;3.236;2022-12-07T04:11:43;8.70;90.60
13521;DHT22;6832;51.186;3.236;2022-12-07T04:14:25;8.70;90.70
13521;DHT22;6832;51.186;3.236;2022-12-07T04:17:13;8.70;90.30
13521;DHT22;6832;51.186;3.236;2022-12-07T04:20:07;8.80;90.30
13521;DHT22;6832;51.186;3.236;2022-12-07T04:22:55;8.80;90.40
13521;DHT22;6832;51.186;3.236;2022-12-07T04:25:53;8.90;90.30
13521;DHT22;6832;51.186;3.236;2022-12-07T04:28:44;8.90;90.10
13521;DHT22;6832;51.186;3.236;2022-12-07T04:31:22;8.90;90.10
13521;DHT22;6832;51.186;3.236;2022-12-07T04:34:30;8.90;89.40
13521;DHT22;6832;51.186;3.236;2022-12-07T04:37:12;8.90;89.60
13521;DHT22;6832;51.186;3.236;2022-12-07T04:39:51;8.80;88.40
13521;DHT22;6832;51.186;3.236;2022-12-07T04:42:43;8.80;88.50
13521;DHT22;6832;51.186;3.236;2022-12-07T04:45:21;8.80;88.70
13521;DHT22;6832;51.186;3.236;2022-12-07T04:48:21;8.80;88.40
13521;DHT22;6832;51.186;3.236;2022-12-07T04:51:03;8.80;88.50
13521;DHT22;6832;51.186;3.236;2022-12-07T04:53:47;8.80;88.60
13521;DHT22;6832;51.186;3.236;2022-12-07T04:56:29;8.80;88.50
13521;DHT22;6832;51.186;3.236;2022-12-07T04:59:40;8.80;88.50
13521;DHT22;6832;51.186;3.236;2022-12-07T05:02:27;8.70;88.10
13521;DHT22;6832;51.186;3.236;2022-12-07T05:05:05;8.70;88.00
13521;DHT22;6832;51.186;3.236;2022-12-07T05:08:17;8.60;87.90
13521;DHT22;6832;51.186;3.236;2022-12-07T05:10:38;8.60;88.10
13521;DHT22;6832;51.186;3.236;2022-12-07T05:16:38;8.50;89.10
13521;DHT22;6832;51.186;3.236;2022-12-07T05:19:14;8.50;88.70
13521;DHT22;6832;51.186;3.236;2022-12-07T05:21:47;8.50;89.40
13521;DHT22;6832;51.186;3.236;2022-12-07T05:24:37;8.50;88.80
13521;DHT22;6832;51.186;3.236;2022-12-07T05:27:08;8.50;89.80
13521;DHT22;6832;51.186;3.236;2022-12-07T05:29:40;8.50;89.20
13521;DHT22;6832;51.186;3.236;2022-12-07T05:32:17;8.50;89.20
13521;DHT22;6832;51.186;3.236;2022-12-07T05:35:05;8.50;89.80
13521;DHT22;6832;51.186;3.236;2022-12-07T05:38:00;8.50;90.00
13521;DHT22;6832;51.186;3.236;2022-12-07T05:40:36;8.50;90.00
13521;DHT22;6832;51.186;3.236;2022-12-07T05:43:09;8.50;89.90
13521;DHT22;6832;51.186;3.236;2022-12-07T05:45:40;8.50;89.90
13521;DHT22;6832;51.186;3.236;2022-12-07T05:48:27;8.50;89.70
13521;DHT22;6832;51.186;3.236;2022-12-07T05:51:30;8.50;89.80
13521;DHT22;6832;51.186;3.236;2022-12-07T05:54:19;8.50;89.60
13521;DHT22;6832;51.186;3.236;2022-12-07T05:56:50;8.50;89.50
13521;DHT22;6832;51.186;3.236;2022-12-07T05:59:21;8.50;89.00
13521;DHT22;6832;51.186;3.236;2022-12-07T06:02:06;8.50;89.20
13521;DHT22;6832;51.186;3.236;2022-12-07T06:07:54;8.50;90.10
13521;DHT22;6832;51.186;3.236;2022-12-07T06:10:41;8.50;90.20
13521;DHT22;6832;51.186;3.236;2022-12-07T06:13:35;8.50;90.20
13521;DHT22;6832;51.186;3.236;2022-12-07T06:16:10;8.50;90.20
13521;DHT22;6832;51.186;3.236;2022-12-07T06:19:05;8.50;90.50
13521;DHT22;6832;51.186;3.236;2022-12-07T06:21:47;8.50;90.70
13521;DHT22;6832;51.186;3.236;2022-12-07T06:24:22;8.50;90.40
13521;DHT22;6832;51.186;3.236;2022-12-07T06:27:13;8.60;90.50
13521;DHT22;6832;51.186;3.236;2022-12-07T06:29:48;8.60;90.40
13521;DHT22;6832;51.186;3.236;2022-12-07T06:32:20;8.60;90.50
13521;DHT22;6832;51.186;3.236;2022-12-07T06:35:00;8.60;90.30
13521;DHT22;6832;51.186;3.236;2022-12-07T06:37:29;8.60;90.40
13521;DHT22;6832;51.186;3.236;2022-12-07T06:40:09;8.60;90.20
13521;DHT22;6832;51.186;3.236;2022-12-07T06:42:43;8.60;90.30
13521;DHT22;6832;51.186;3.236;2022-12-07T06:45:17;8.60;90.20
13521;DHT22;6832;51.186;3.236;2022-12-07T06:47:48;8.70;90.20
13521;DHT22;6832;51.186;3.236;2022-12-07T06:50:25;8.60;90.00
13521;DHT22;6832;51.186;3.236;2022-12-07T06:53:00;8.70;90.00
13521;DHT22;6832;51.186;3.236;2022-12-07T06:56:06;8.60;89.70
13521;DHT22;6832;51.186;3.236;2022-12-07T06:58:41;8.60;89.80
13521;DHT22;6832;51.186;3.236;2022-12-07T07:01:14;8.60;89.40
13521;DHT22;6832;51.186;3.236;2022-12-07T07:03:45;8.60;89.20
13521;DHT22;6832;51.186;3.236;2022-12-07T07:06:23;8.60;89.20
13521;DHT22;6832;51.186;3.236;2022-12-07T07:09:03;8.60;89.50
13521;DHT22;6832;51.186;3.236;2022-12-07T07:11:45;8.60;89.70
13521;DHT22;6832;51.186;3.236;2022-12-07T07:14:19;8.60;89.50
13521;DHT22;6832;51.186;3.236;2022-12-07T07:16:53;8.60;89.30
13521;DHT22;6832;51.186;3.236;2022-12-07T07:19:20;8.60;89.80
13521;DHT22;6832;51.186;3.236;2022-12-07T07:21:47;8.60;89.80
13521;DHT22;6832;51.186;3.236;2022-12-07T07:24:15;8.60;90.00
13521;DHT22;6832;51.186;3.236;2022-12-07T07:26:47;8.60;90.20
13521;DHT22;6832;51.186;3.236;2022-12-07T07:29:17;8.50;90.30
13521;DHT22;6832;51.186;3.236;2022-12-07T07:31:47;8.60;90.40
13521;DHT22;6832;51.186;3.236;2022-12-07T07:34:16;8.60;90.50
13521;DHT22;6832;51.186;3.236;2022-12-07T07:39:50;8.60;90.80
13521;DHT22;6832;51.186;3.236;2022-12-07T07:42:20;8.60;90.60
13521;DHT22;6832;51.186;3.236;2022-12-07T07:44:48;8.60;90.80
13521;DHT22;6832;51.186;3.236;2022-12-07T07:47:18;8.60;90.70
13521;DHT22;6832;51.186;3.236;2022-12-07T07:49:53;8.60;90.80
13521;DHT22;6832;51.186;3.236;2022-12-07T07:52:26;8.60;91.00
13521;DHT22;6832;51.186;3.236;2022-12-07T07:55:01;8.60;91.00
13521;DHT22;6832;51.186;3.236;2022-12-07T07:57:32;8.60;91.00
13521;DHT22;6832;51.186;3.236;2022-12-07T08:00:08;8.60;91.00
13521;DHT22;6832;51.186;3.236;2022-12-07T08:02:40;8.70;91.10
13521;DHT22;6832;51.186;3.236;2022-12-07T08:05:08;8.70;90.90
13521;DHT22;6832;51.186;3.236;2022-12-07T08:07:35;8.70;90.80
13521;DHT22;6832;51.186;3.236;2022-12-07T08:10:06;8.70;90.80
13521;DHT22;6832;51.186;3.236;2022-12-07T08:12:41;8.70;91.00
13521;DHT22;6832;51.186;3.236;2022-12-07T08:15:25;8.70;91.10
13521;DHT22;6832;51.186;3.236;2022-12-07T08:17:52;8.70;91.00
13521;DHT22;6832;51.186;3.236;2022-12-07T08:20:23;8.70;90.80
13521;DHT22;6832;51.186;3.236;2022-12-07T08:23:05;8.70;90.80
13521;DHT22;6832;51.186;3.236;2022-12-07T08:25:33;8.70;90.80
13521;DHT22;6832;51.186;3.236;2022-12-07T08:28:07;8.70;90.90
13521;DHT22;6832;51.186;3.236;2022-12-07T08:30:34;8.70;91.00
13521;DHT22;6832;51.186;3.236;2022-12-07T08:33:02;8.60;90.90
13521;DHT22;6832;51.186;3.236;2022-12-07T08:35:32;8.70;91.10
13521;DHT22;6832;51.186;3.236;2022-12-07T08:38:04;8.70;91.10
13521;DHT22;6832;51.186;3.236;2022-12-07T08:40:39;8.70;91.40
13521;DHT22;6832;51.186;3.236;2022-12-07T08:43:10;8.70;91.20
13521;DHT22;6832;51.186;3.236;2022-12-07T08:45:53;8.70;91.60
13521;DHT22;6832;51.186;3.236;2022-12-07T08:48:26;8.80;91.80
13521;DHT22;6832;51.186;3.236;2022-12-07T08:51:02;8.80;91.80
13521;DHT22;6832;51.186;3.236;2022-12-07T08:53:30;8.80;91.90
13521;DHT22;6832;51.186;3.236;2022-12-07T08:55:58;8.80;91.80
13521;DHT22;6832;51.186;3.236;2022-12-07T08:58:39;8.80;91.60
13521;DHT22;6832;51.186;3.236;2022-12-07T09:01:11;8.90;92.00
13521;DHT22;6832;51.186;3.236;2022-12-07T09:03:39;8.90;91.90
13521;DHT22;6832;51.186;3.236;2022-12-07T09:06:06;8.90;91.60
13521;DHT22;6832;51.186;3.236;2022-12-07T09:08:50;8.90;91.40
13521;DHT22;6832;51.186;3.236;2022-12-07T09:11:18;9.00;91.50
13521;DHT22;6832;51.186;3.236;2022-12-07T09:13:47;9.00;91.30
13521;DHT22;6832;51.186;3.236;2022-12-07T09:16:17;9.00;91.30
13521;DHT22;6832;51.186;3.236;2022-12-07T09:18:48;9.00;91.30
13521;DHT22;6832;51.186;3.236;2022-12-07T09:21:19;9.10;91.30
13521;DHT22;6832;51.186;3.236;2022-12-07T09:23:51;9.10;91.30
13521;DHT22;6832;51.186;3.236;2022-12-07T09:26:24;9.10;91.40
13521;DHT22;6832;51.186;3.236;2022-12-07T09:28:57;9.20;91.40
13521;DHT22;6832;51.186;3.236;2022-12-07T09:31:35;9.20;91.60
13521;DHT22;6832;51.186;3.236;2022-12-07T09:34:08;9.20;91.90
13521;DHT22;6832;51.186;3.236;2022-12-07T09:36:35;9.20;92.10
13521;DHT22;6832;51.186;3.236;2022-12-07T09:39:06;9.20;92.00
13521;DHT22;6832;51.186;3.236;2022-12-07T09:41:33;9.30;92.20
13521;DHT22;6832;51.186;3.236;2022-12-07T09:44:09;9.30;91.80
13521;DHT22;6832;51.186;3.236;2022-12-07T09:46:43;9.30;91.70
13521;DHT22;6832;51.186;3.236;2022-12-07T09:49:16;9.40;91.70
13521;DHT22;6832;51.186;3.236;2022-12-07T09:51:58;9.40;91.70
13521;DHT22;6832;51.186;3.236;2022-12-07T09:54:26;9.40;91.70
13521;DHT22;6832;51.186;3.236;2022-12-07T09:56:55;9.50;91.50
13521;DHT22;6832;51.186;3.236;2022-12-07T09:59:24;9.50;91.60
13521;DHT22;6832;51.186;3.236;2022-12-07T10:02:19;9.60;92.00
13521;DHT22;6832;51.186;3.236;2022-12-07T10:04:50;9.60;91.70
13521;DHT22;6832;51.186;3.236;2022-12-07T10:32:53;9.90;91.80
13521;DHT22;6832;51.186;3.236;2022-12-07T10:35:36;10.00;91.20
13521;DHT22;6832;51.186;3.236;2022-12-07T10:38:17;10.00;91.10
13521;DHT22;6832;51.186;3.236;2022-12-07T10:41:42;10.00;91.20
13521;DHT22;6832;51.186;3.236;2022-12-07T10:44:24;10.10;91.50
13521;DHT22;6832;51.186;3.236;2022-12-07T10:47:25;10.10;91.20
13521;DHT22;6832;51.186;3.236;2022-12-07T10:53:18;10.20;91.50
13521;DHT22;6832;51.186;3.236;2022-12-07T10:56:24;10.20;91.10
13521;DHT22;6832;51.186;3.236;2022-12-07T10:59:15;10.30;91.00
13521;DHT22;6832;51.186;3.236;2022-12-07T11:02:23;10.30;90.60
13521;DHT22;6832;51.186;3.236;2022-12-07T11:05:00;10.40;90.40
13521;DHT22;6832;51.186;3.236;2022-12-07T11:07:42;10.40;90.60
13521;DHT22;6832;51.186;3.236;2022-12-07T11:10:15;10.50;90.80
13521;DHT22;6832;51.186;3.236;2022-12-07T11:12:54;10.60;90.40
13521;DHT22;6832;51.186;3.236;2022-12-07T11:15:49;10.60;90.00
13521;DHT22;6832;51.186;3.236;2022-12-07T11:18:34;10.70;90.40
13521;DHT22;6832;51.186;3.236;2022-12-07T11:21:21;10.80;90.00
13521;DHT22;6832;51.186;3.236;2022-12-07T11:24:00;10.90;89.40
13521;DHT22;6832;51.186;3.236;2022-12-07T11:26:45;11.00;88.40
13521;DHT22;6832;51.186;3.236;2022-12-07T11:29:33;11.10;85.40
13521;DHT22;6832;51.186;3.236;2022-12-07T11:32:17;11.10;84.30
13521;DHT22;6832;51.186;3.236;2022-12-07T11:34:56;11.20;84.10
13521;DHT22;6832;51.186;3.236;2022-12-07T11:37:47;11.20;83.70
13521;DHT22;6832;51.186;3.236;2022-12-07T11:40:34;11.20;83.80
13521;DHT22;6832;51.186;3.236;2022-12-07T11:43:18;11.20;84.40
13521;DHT22;6832;51.186;3.236;2022-12-07T11:45:58;11.20;84.50
13521;DHT22;6832;51.186;3.236;2022-12-07T11:48:33;11.20;85.10
13521;DHT22;6832;51.186;3.236;2022-12-07T11:51:14;11.20;85.40
13521;DHT22;6832;51.186;3.236;2022-12-07T11:53:51;11.20;85.50
13521;DHT22;6832;51.186;3.236;2022-12-07T11:56:30;11.20;85.90
13521;DHT22;6832;51.186;3.236;2022-12-07T11:59:22;11.20;86.20
13521;DHT22;6832;51.186;3.236;2022-12-07T12:01:56;11.20;86.50
13521;DHT22;6832;51.186;3.236;2022-12-07T12:04:32;11.20;86.60
13521;DHT22;6832;51.186;3.236;2022-12-07T12:07:10;11.20;86.60
13521;DHT22;6832;51.186;3.236;2022-12-07T12:09:59;11.20;86.80
13521;DHT22;6832;51.186;3.236;2022-12-07T12:13:05;11.20;86.70
13521;DHT22;6832;51.186;3.236;2022-12-07T12:15:58;11.20;87.50
13521;DHT22;6832;51.186;3.236;2022-12-07T12:19:10;11.20;88.20
13521;DHT22;6832;51.186;3.236;2022-12-07T12:22:06;11.20;88.00
13521;DHT22;6832;51.186;3.236;2022-12-07T12:27:55;11.30;86.80
13521;DHT22;6832;51.186;3.236;2022-12-07T12:30:32;11.30;86.60
13521;DHT22;6832;51.186;3.236;2022-12-07T12:33:12;11.30;87.40
13521;DHT22;6832;51.186;3.236;2022-12-07T12:35:43;11.30;87.10
13521;DHT22;6832;51.186;3.236;2022-12-07T12:38:30;11.30;85.80
13521;DHT22;6832;51.186;3.236;2022-12-07T12:41:03;11.40;85.60
13521;DHT22;6832;51.186;3.236;2022-12-07T12:43:48;11.40;84.30
13521;DHT22;6832;51.186;3.236;2022-12-07T12:46:48;11.40;83.90
13521;DHT22;6832;51.186;3.236;2022-12-07T12:52:51;11.50;82.90
13521;DHT22;6832;51.186;3.236;2022-12-07T12:58:38;11.60;82.40
13521;DHT22;6832;51.186;3.236;2022-12-07T13:04:49;11.50;82.20
13521;DHT22;6832;51.186;3.236;2022-12-07T13:07:58;11.60;81.50
13521;DHT22;6832;51.186;3.236;2022-12-07T13:10:38;11.50;81.70
13521;DHT22;6832;51.186;3.236;2022-12-07T13:13:31;11.60;81.50
13521;DHT22;6832;51.186;3.236;2022-12-07T13:22:50;11.40;79.20
13521;DHT22;6832;51.186;3.236;2022-12-07T13:25:24;11.40;79.50
13521;DHT22;6832;51.186;3.236;2022-12-07T13:27:59;11.30;79.50
13521;DHT22;6832;51.186;3.236;2022-12-07T13:30:33;11.30;79.40
13521;DHT22;6832;51.186;3.236;2022-12-07T13:33:17;11.30;79.40
13521;DHT22;6832;51.186;3.236;2022-12-07T13:35:47;11.20;79.40
13521;DHT22;6832;51.186;3.236;2022-12-07T13:38:29;11.20;79.20
13521;DHT22;6832;51.186;3.236;2022-12-07T13:41:11;11.20;79.20
13521;DHT22;6832;51.186;3.236;2022-12-07T13:43:54;11.20;79.70
13521;DHT22;6832;51.186;3.236;2022-12-07T13:46:50;11.20;80.10
13521;DHT22;6832;51.186;3.236;2022-12-07T13:49:22;11.20;81.00
13521;DHT22;6832;51.186;3.236;2022-12-07T13:52:08;11.10;81.30
13521;DHT22;6832;51.186;3.236;2022-12-07T13:54:48;11.10;80.90
13521;DHT22;6832;51.186;3.236;2022-12-07T13:57:28;11.10;81.40
13521;DHT22;6832;51.186;3.236;2022-12-07T14:00:00;11.20;81.70
13521;DHT22;6832;51.186;3.236;2022-12-07T14:02:35;11.20;82.30
13521;DHT22;6832;51.186;3.236;2022-12-07T14:05:09;11.20;82.30
13521;DHT22;6832;51.186;3.236;2022-12-07T14:07:49;11.20;82.90
13521;DHT22;6832;51.186;3.236;2022-12-07T14:10:29;11.20;82.60
13521;DHT22;6832;51.186;3.236;2022-12-07T14:12:59;11.20;81.70
13521;DHT22;6832;51.186;3.236;2022-12-07T14:15:29;11.20;81.70
13521;DHT22;6832;51.186;3.236;2022-12-07T14:18:01;11.20;80.90
13521;DHT22;6832;51.186;3.236;2022-12-07T14:20:37;11.20;79.90
13521;DHT22;6832;51.186;3.236;2022-12-07T14:23:25;11.20;79.60
13521;DHT22;6832;51.186;3.236;2022-12-07T14:26:06;11.20;79.60
13521;DHT22;6832;51.186;3.236;2022-12-07T14:28:41;11.10;79.60
13521;DHT22;6832;51.186;3.236;2022-12-07T14:31:23;11.10;79.40
13521;DHT22;6832;51.186;3.236;2022-12-07T14:33:51;11.10;78.80
13521;DHT22;6832;51.186;3.236;2022-12-07T14:36:26;11.10;79.10
13521;DHT22;6832;51.186;3.236;2022-12-07T14:38:58;11.10;78.80
13521;DHT22;6832;51.186;3.236;2022-12-07T14:41:29;11.10;79.30
13521;DHT22;6832;51.186;3.236;2022-12-07T14:44:15;11.00;79.00
13521;DHT22;6832;51.186;3.236;2022-12-07T14:46:45;11.00;78.90
13521;DHT22;6832;51.186;3.236;2022-12-07T14:49:14;11.00;78.60
13521;DHT22;6832;51.186;3.236;2022-12-07T14:51:42;11.00;78.60
13521;DHT22;6832;51.186;3.236;2022-12-07T14:54:16;11.00;78.60
13521;DHT22;6832;51.186;3.236;2022-12-07T14:56:46;11.00;78.60
13521;DHT22;6832;51.186;3.236;2022-12-07T14:59:18;10.90;78.90
13521;DHT22;6832;51.186;3.236;2022-12-07T15:01:46;10.90;80.00
13521;DHT22;6832;51.186;3.236;2022-12-07T15:04:15;10.90;79.00
13521;DHT22;6832;51.186;3.236;2022-12-07T15:06:56;10.90;79.10
13521;DHT22;6832;51.186;3.236;2022-12-07T15:09:27;10.90;78.90
13521;DHT22;6832;51.186;3.236;2022-12-07T15:12:05;10.90;79.00
13521;DHT22;6832;51.186;3.236;2022-12-07T15:14:33;10.90;79.00
13521;DHT22;6832;51.186;3.236;2022-12-07T15:17:07;10.80;79.20
13521;DHT22;6832;51.186;3.236;2022-12-07T15:19:40;10.80;79.40
13521;DHT22;6832;51.186;3.236;2022-12-07T15:22:22;10.80;79.70
13521;DHT22;6832;51.186;3.236;2022-12-07T15:25:23;10.80;80.10
13521;DHT22;6832;51.186;3.236;2022-12-07T15:34:45;10.70;79.40
13521;DHT22;6832;51.186;3.236;2022-12-07T15:37:23;10.70;79.70
13521;DHT22;6832;51.186;3.236;2022-12-07T15:39:55;10.70;79.40
13521;DHT22;6832;51.186;3.236;2022-12-07T15:42:45;10.70;79.80
13521;DHT22;6832;51.186;3.236;2022-12-07T15:45:42;10.60;80.00
13521;DHT22;6832;51.186;3.236;2022-12-07T15:48:25;10.60;79.80
13521;DHT22;6832;51.186;3.236;2022-12-07T17:05:42;9.60;83.10
13521;DHT22;6832;51.186;3.236;2022-12-07T17:08:57;9.60;83.20
13521;DHT22;6832;51.186;3.236;2022-12-07T17:15:29;9.50;83.40
13521;DHT22;6832;51.186;3.236;2022-12-07T17:18:55;9.50;83.40
13521;DHT22;6832;51.186;3.236;2022-12-07T17:28:58;9.50;84.70
13521;DHT22;6832;51.186;3.236;2022-12-07T17:32:40;9.50;84.80
13521;DHT22;6832;51.186;3.236;2022-12-07T17:38:02;9.40;84.70
13521;DHT22;6832;51.186;3.236;2022-12-07T17:44:32;9.40;86.10
13521;DHT22;6832;51.186;3.236;2022-12-07T17:47:27;9.40;86.40
13521;DHT22;6832;51.186;3.236;2022-12-07T17:53:17;9.50;87.30
13521;DHT22;6832;51.186;3.236;2022-12-07T17:55:54;9.50;87.10
13521;DHT22;6832;51.186;3.236;2022-12-07T17:58:50;9.50;87.30
13521;DHT22;6832;51.186;3.236;2022-12-07T18:24:19;9.50;87.50
13521;DHT22;6832;51.186;3.236;2022-12-07T18:28:27;9.60;87.60
13521;DHT22;6832;51.186;3.236;2022-12-07T18:30:59;9.60;87.50
13521;DHT22;6832;51.186;3.236;2022-12-07T18:33:50;9.60;87.20
13521;DHT22;6832;51.186;3.236;2022-12-07T18:36:42;9.60;86.90
13521;DHT22;6832;51.186;3.236;2022-12-07T18:39:40;9.60;86.00
13521;DHT22;6832;51.186;3.236;2022-12-07T18:42:45;9.50;85.40
13521;DHT22;6832;51.186;3.236;2022-12-07T18:45:48;9.60;85.40
13521;DHT22;6832;51.186;3.236;2022-12-07T18:48:23;9.50;85.10
13521;DHT22;6832;51.186;3.236;2022-12-07T18:51:18;9.50;85.20
13521;DHT22;6832;51.186;3.236;2022-12-07T18:54:42;9.40;85.20
13521;DHT22;6832;51.186;3.236;2022-12-07T19:00:33;9.40;85.70
13521;DHT22;6832;51.186;3.236;2022-12-07T19:03:28;9.40;86.00
13521;DHT22;6832;51.186;3.236;2022-12-07T19:06:16;9.30;85.90
13521;DHT22;6832;51.186;3.236;2022-12-07T19:09:43;9.30;85.90
13521;DHT22;6832;51.186;3.236;2022-12-07T19:12:41;9.30;86.30
13521;DHT22;6832;51.186;3.236;2022-12-07T19:22:18;9.30;87.20
13521;DHT22;6832;51.186;3.236;2022-12-07T19:25:18;9.30;87.10
13521;DHT22;6832;51.186;3.236;2022-12-07T19:28:13;9.30;87.00
13521;DHT22;6832;51.186;3.236;2022-12-07T19:31:30;9.30;86.80
13521;DHT22;6832;51.186;3.236;2022-12-07T19:58:46;9.10;87.00
13521;DHT22;6832;51.186;3.236;2022-12-07T20:10:40;9.10;87.20
13521;DHT22;6832;51.186;3.236;2022-12-07T20:23:58;9.00;86.60
13521;DHT22;6832;51.186;3.236;2022-12-07T20:30:32;9.00;86.30
13521;DHT22;6832;51.186;3.236;2022-12-07T20:33:31;9.00;86.20
13521;DHT22;6832;51.186;3.236;2022-12-07T20:36:42;8.90;86.30
13521;DHT22;6832;51.186;3.236;2022-12-07T20:40:03;8.90;86.00
13521;DHT22;6832;51.186;3.236;2022-12-07T20:50:17;8.80;86.00
13521;DHT22;6832;51.186;3.236;2022-12-07T21:17:09;8.60;84.90
13521;DHT22;6832;51.186;3.236;2022-12-07T21:20:23;8.60;84.90
13521;DHT22;6832;51.186;3.236;2022-12-07T21:26:58;8.50;84.90
13521;DHT22;6832;51.186;3.236;2022-12-07T21:30:23;8.50;84.80
13521;DHT22;6832;51.186;3.236;2022-12-07T21:37:13;8.40;84.80
13521;DHT22;6832;51.186;3.236;2022-12-07T21:40:01;8.40;84.80
13521;DHT22;6832;51.186;3.236;2022-12-07T21:43:31;8.30;84.40
13521;DHT22;6832;51.186;3.236;2022-12-07T21:46:50;8.30;84.80
13521;DHT22;6832;51.186;3.236;2022-12-07T21:49:57;8.20;84.70
13521;DHT22;6832;51.186;3.236;2022-12-07T22:10:26;8.00;85.60
13521;DHT22;6832;51.186;3.236;2022-12-07T22:13:20;7.90;85.60
13521;DHT22;6832;51.186;3.236;2022-12-07T22:16:36;8.00;85.70
13521;DHT22;6832;51.186;3.236;2022-12-07T22:19:37;8.00;85.90
13521;DHT22;6832;51.186;3.236;2022-12-07T22:22:20;7.90;85.90
13521;DHT22;6832;51.186;3.236;2022-12-07T22:25:21;7.90;86.10
13521;DHT22;6832;51.186;3.236;2022-12-07T22:28:28;7.90;86.20
13521;DHT22;6832;51.186;3.236;2022-12-07T22:31:25;7.90;86.30
13521;DHT22;6832;51.186;3.236;2022-12-07T22:37:58;7.80;86.60
13521;DHT22;6832;51.186;3.236;2022-12-07T22:40:43;7.90;86.70
13521;DHT22;6832;51.186;3.236;2022-12-07T22:47:19;7.80;86.70
13521;DHT22;6832;51.186;3.236;2022-12-07T22:50:22;7.90;86.80
13521;DHT22;6832;51.186;3.236;2022-12-07T22:54:05;7.80;86.90
13521;DHT22;6832;51.186;3.236;2022-12-07T23:00:44;7.90;87.30
13521;DHT22;6832;51.186;3.236;2022-12-07T23:32:34;7.90;88.40
13521;DHT22;6832;51.186;3.236;2022-12-07T23:35:58;7.90;88.50
13521;DHT22;6832;51.186;3.236;2022-12-07T23:39:08;7.90;88.40
13521;DHT22;6832;51.186;3.236;2022-12-07T23:42:42;7.90;88.50
